RLSO2: Arkansas River, Ralston, OK

                                SHEF ID:       RLSO2     Arkansas River at Ralston, OK
STATION TYPE:
Regulating: Stage = 16.00, Flow = 78729

PRECIP STAGE STAGE(2) RIV-FLOW AIR-TEMP BAT-LOAD
in ft ft cfs F volt
Ccp-Rev Ccp-Rev Ccp-Rev Ccp-Rev Ccp-Rev Ccp-Rev
(America/Chicago)
05/04 00:00 0.00 4.35 4.40 1562 71.24 12.73
05/04 01:00 0.00 4.33 4.40 1531 70.52 12.70
05/04 02:00 0.00 4.34 4.43 1546 69.62 12.68
05/04 03:00 0.00 4.34 4.40 1546 68.00 12.67
05/04 04:00 0.00 4.33 4.41 1531 66.74 12.65
05/04 05:00 0.00 4.34 4.39 1546 66.02 12.65
05/04 06:00 0.00 4.32 4.39 1516 64.22 12.63
05/04 07:00 0.00 4.32 4.40 1516 63.68 12.63
05/04 08:00 0.00 4.31 4.40 1501 66.20 12.65
05/04 09:00 0.00 4.28 4.39 1456 70.34 12.85
05/04 10:00 0.00 4.30 4.37 1486 73.22 13.23
05/04 11:00 0.00 4.30 4.40 1486 75.56 13.16
05/04 12:00 0.00 4.32 4.40 1516 77.90 13.08
05/04 13:00 0.00 4.32 4.42 1516 79.52 13.07
05/04 14:00 0.00 4.30 4.40 1486 80.42 13.03
05/04 15:00 0.00 4.30 4.38 1486 80.78 13.01
05/04 16:00 0.00 4.32 4.38 1516 80.60 12.99
05/04 17:00 0.00 4.30 4.36 1486 80.24 13.03
05/04 18:00 0.00 4.29 4.36 1471 79.88 13.01
05/04 19:00 0.00 4.27 4.36 1442 78.62 12.96
05/04 20:00 0.00 4.26 4.37 1427 76.82 12.88
05/04 21:00 0.00 4.35 4.36 1562 74.84 12.80
05/04 22:00 0.00 4.31 4.34 1501 73.94 12.77
05/04 23:00 ---- ---- ---- ---- ---- ----
Data processed at Tue 05May2026 03:21 GMT

NOTICE: If you are parsing this page

Please convert to using our Data API. Starting early 2026 we will be migrating to: https://water.usace.army.mil with modern pages rendered in JavaScript. When this migration completes you will no longer be able to scrape this page! CWMSDataAPI (CDA)

Timeseries IDs (TSIDs)

TSIDs used from left to right in the data table
RALS.Precip-Inc.Total.1Hour.1Hour.Ccp-Rev
RALS.Stage.Inst.1Hour.0.Ccp-Rev
RALS.Stage-Alt.Inst.1Hour.0.Ccp-Rev
RALS.Flow.Inst.1Hour.0.Ccp-Rev
RALS.Temp-Air.Inst.1Hour.0.Ccp-Rev
RALS.Volt-Battery Load.Inst.1Hour.0.Ccp-Rev

                            

All information presented herein is the property of the government of the United States of America and may be revised or deleted at any time without prior notice. Dissemination of this information without the expressed written consent of the Public Affairs Office, Tulsa District U.S. Army Corps of Engineers is strictly prohibited. These data are gathered electronically and, as presented, have NOT undergone any form of quality control. These data are NOT guaranteed to be valid or correct.